This is the latest recevied weather packets stored in our database for station/object LEMD. If no packets are shown the sender has not sent any weather packets the latest 1 day(s).
| Time | Temp. | Humidity | Pressure | Rain* | Wind** | Luminosity | Snow |
|---|---|---|---|---|---|---|---|
| 1778001303 | 18.89° C | 27% | 1011 hPa | - | 6.71 m/s, 290° | - | - |
| 1778000405 | 18.89° C | 27% | 1011 hPa | - | 6.71 m/s, 300° | - | - |
| 1777999504 | 18.89° C | 27% | 1011 hPa | - | 6.71 m/s, 300° | - | - |
| 1777998605 | 18.89° C | 27% | 1011 hPa | - | 7.6 m/s, 280° | - | - |
| 1777997704 | 18.89° C | 27% | 1011 hPa | - | 7.6 m/s, 280° | - | - |
| 1777995903 | 18.89° C | 27% | 1012 hPa | - | 5.36 m/s, 280° | - | - |
| 1777995004 | 17.78° C | 29% | 1012 hPa | - | 0.45 m/s, 270° | - | - |
| 1777992304 | 18.89° C | 27% | 1012 hPa | - | 3.13 m/s, 260° | - | - |
| 1777991404 | 18.89° C | 29% | 1012 hPa | - | 3.58 m/s, 270° | - | - |
| 1777990504 | 18.89° C | 29% | 1012 hPa | - | 3.58 m/s, 270° | - | - |
| 1777989604 | 18.89° C | 32% | 1012 hPa | - | 4.02 m/s, 270° | - | - |
| 1777987804 | 17.78° C | 34% | 1012 hPa | - | 6.26 m/s, 230° | - | - |
| 1777986904 | 17.78° C | 34% | 1012 hPa | - | 6.26 m/s, 230° | - | - |
| 1777985104 | 17.78° C | 34% | 1012 hPa | - | 0.45 m/s, 230° | - | - |
| 1777982404 | 17.22° C | 39% | 1013 hPa | - | 3.58 m/s, 230° | - | - |
| 1777981503 | 17.22° C | 39% | 1013 hPa | - | 3.58 m/s, 230° | - | - |
| 1777980604 | 16.11° C | 38% | 1013 hPa | - | 3.58 m/s, 250° | - | - |
| 1777979703 | 16.11° C | 38% | 1013 hPa | - | 3.58 m/s, 250° | - | - |
| 1777978804 | 13.89° C | 50% | 1013 hPa | - | 1.34 m/s, 350° | - | - |
| 1777974304 | 15° C | 47% | 1013 hPa | - | 2.24 m/s, 150° | - | - |
| 1777973405 | 15° C | 54% | 1013 hPa | - | 2.24 m/s, 160° | - | - |
| 1777972504 | 15° C | 54% | 1013 hPa | - | 2.24 m/s, 160° | - | - |
| 1777970704 | 12.78° C | 58% | 1013 hPa | - | 2.24 m/s, 130° | - | - |
| 1777969804 | 12.22° C | 71% | 1013 hPa | - | 2.24 m/s, 130° | - | - |
| 1777968004 | 11.11° C | 71% | 1013 hPa | - | 1.34 m/s, 120° | - | - |
* Rain since midnight (hover to see other rain measurements)
** Current wind speed in m/s (hover to see current wind gust speed)